The Hangar Logo

METARs in Plain English
Latest METAR information for EGVN - BRIZE NORTON

EGVN 302350Z 26021G39KT 9999 -RA OVC012 11/09 Q0996 BECMG BKN020

In plain english is....

This is a METAR report for EGVN - BRIZE NORTON .
The report was made 23 minutes ago, at 23:50 UTC.
The wind was blowing at a speed of 21 knots (24.2 miles per hour, 10.8 metres per second), with gusts to 39 knots (44.9 miles per hour, 20.1 metres per second), from the West (260°).
The visibility was greater than 6.2 miles (greater than 10 kilometres).
Weather was Light Rain .
There were overcast at a height of 1200 feet (366 metres).
The temperature was 11°C (52°F), a dew point of 9°C (48°F) and a relative humidity of 87.5%.
The altimeter setting (airfield QNH) was 996 hPa (29.41 inHg).
Other remarks BECMG BKN020.

UK Mainland

Ireland

Channel Islands

France

Other



Enter
Tel: 07092 887559 - Fax: 07092 183262

Terms of Use | Privacy Statement
Content copyright © 1999-2012 TheHangar.co.uk. All rights reserved.
Please send your questions, comments, or bug reports to the Webmaster.